Time;durP1;ratioP1;P1;durP2;ratioP2;P2;SDS_P1;SDS_P2;PMS_P1;PMS_P2;Temp;Humidity;BMP_temperature;BMP_pressure;BME280_temperature;BME280_humidity;BME280_pressure;Samples;Min_cycle;Max_cycle;Signal;HPM_P1;HPM_P2
2021/10/22 00:02:02;;;;;;;1.17;0.60;;;;;;;26.81;33.68;96532.16;5061352;28;20032;-34
2021/10/22 00:04:28;;;;;;;1.13;0.70;;;;;;;26.82;33.69;96536.50;5066763;28;20062;-32
2021/10/22 00:06:53;;;;;;;1.27;0.52;;;;;;;26.81;33.72;96542.69;5062345;28;20028;-29
2021/10/22 00:09:19;;;;;;;4.80;0.80;;;;;;;26.81;33.72;96547.94;5065114;28;20403;-32
2021/10/22 00:15:08;;;;;;;0.77;0.60;;;;;;;26.81;33.72;96547.94;5059460;28;20615;-29
2021/10/22 00:17:34;;;;;;;0.82;0.50;;;;;;;26.80;33.76;96548.88;5079057;28;20437;-33
2021/10/22 00:19:59;;;;;;;1.13;0.40;;;;;;;26.80;33.73;96551.50;5064738;28;20029;-33
2021/10/22 00:22:24;;;;;;;0.95;0.60;;;;;;;26.79;33.64;96544.56;5063693;28;20082;-31
2021/10/22 00:24:50;;;;;;;3.85;0.80;;;;;;;26.79;33.73;96552.47;5059133;28;20032;-31
2021/10/22 00:27:15;;;;;;;1.52;0.55;;;;;;;26.79;33.78;96560.34;5058120;28;20619;-31
2021/10/22 00:29:41;;;;;;;0.63;0.32;;;;;;;26.79;33.91;96557.72;5055716;28;20077;-30
2021/10/22 00:32:06;;;;;;;0.45;0.40;;;;;;;26.80;33.80;96562.03;5057321;28;20054;-28
2021/10/22 00:34:32;;;;;;;1.35;0.60;;;;;;;26.79;33.79;96562.13;5058036;28;20410;-29
2021/10/22 00:36:58;;;;;;;1.27;0.60;;;;;;;26.77;33.79;96567.47;5056086;28;20089;-29
2021/10/22 00:39:23;;;;;;;1.08;0.50;;;;;;;26.77;33.67;96562.22;5055087;28;20111;-29
2021/10/22 00:41:49;;;;;;;1.02;0.68;;;;;;;26.79;33.73;96565.59;5056860;28;20028;-35
2021/10/22 00:44:14;;;;;;;0.45;0.38;;;;;;;26.79;33.78;96557.72;5055147;28;20043;-32
2021/10/22 00:46:40;;;;;;;0.50;0.45;;;;;;;26.79;33.78;96555.09;5055285;28;20035;-30
2021/10/22 00:49:07;;;;;;;0.40;0.30;;;;;;;26.79;33.86;96560.34;5056531;28;20032;-29
2021/10/22 00:51:33;;;;;;;1.70;0.43;;;;;;;26.78;33.79;96561.28;5062675;28;20089;-30
2021/10/22 00:53:58;;;;;;;0.95;0.40;;;;;;;26.77;33.76;96561.38;5050860;28;20040;-31
2021/10/22 00:56:24;;;;;;;1.75;0.57;;;;;;;26.79;33.72;96565.59;5053828;28;20028;-34
2021/10/22 00:58:49;;;;;;;0.75;0.40;;;;;;;26.78;33.83;96574.44;5055010;28;20637;-29
2021/10/22 01:01:15;;;;;;;1.52;0.60;;;;;;;26.79;33.75;96576.13;5052689;28;20020;-29
2021/10/22 01:03:40;;;;;;;0.82;0.40;;;;;;;26.78;33.78;96582.31;5057321;28;20028;-30
2021/10/22 01:06:06;;;;;;;1.08;0.50;;;;;;;26.77;33.69;96583.25;5057428;28;20032;-34
2021/10/22 01:08:32;;;;;;;0.47;0.30;;;;;;;26.75;33.88;96579.88;5063142;28;20101;-30
2021/10/22 01:11:01;;;;;;;1.42;0.60;;;;;;;26.78;33.84;96584.09;5055578;28;20024;-25
2021/10/22 01:13:27;;;;;;;1.67;0.60;;;;;;;26.77;33.75;96583.25;5056307;28;20055;-30
2021/10/22 01:15:52;;;;;;;1.05;0.35;;;;;;;26.78;33.83;96584.09;5039468;28;20036;-32
2021/10/22 01:18:18;;;;;;;1.80;0.50;;;;;;;26.78;33.89;96578.84;5053885;28;20093;-29
2021/10/22 01:20:43;;;;;;;2.45;0.50;;;;;;;26.78;33.75;96584.09;5054395;28;20097;-29
2021/10/22 01:23:09;;;;;;;0.47;0.30;;;;;;;26.78;33.83;96579.69;5053699;28;20032;-34
2021/10/22 01:25:34;;;;;;;0.75;0.40;;;;;;;26.77;33.84;96575.34;5053714;28;20518;-33
2021/10/22 01:27:59;;;;;;;0.82;0.35;;;;;;;26.77;33.66;96574.53;5054070;28;20040;-32
2021/10/22 01:30:26;;;;;;;0.82;0.30;;;;;;;26.76;33.88;96581.56;5051987;28;20063;-27
2021/10/22 01:32:55;;;;;;;0.32;0.20;;;;;;;26.77;33.80;96580.59;5052583;28;20387;-32
2021/10/22 01:35:20;;;;;;;0.30;0.22;;;;;;;26.76;33.72;96581.56;5049326;28;20025;-27
2021/10/22 01:37:45;;;;;;;1.38;0.60;;;;;;;26.76;33.78;96580.72;5054746;28;20035;-31
2021/10/22 01:40:11;;;;;;;1.73;0.60;;;;;;;26.75;33.84;96582.50;5055904;28;20402;-30
2021/10/22 01:42:37;;;;;;;1.08;0.50;;;;;;;26.76;33.83;96592.06;5069149;28;20036;-29
2021/10/22 01:45:04;;;;;;;0.73;0.38;;;;;;;26.76;33.83;96586.81;5048808;28;20045;-31
2021/10/22 01:47:29;;;;;;;1.63;0.38;;;;;;;26.75;33.75;96585.13;5050904;28;20059;-32
2021/10/22 01:49:55;;;;;;;0.80;0.45;;;;;;;26.74;33.86;96584.28;5051825;28;20508;-29
2021/10/22 01:52:21;;;;;;;0.77;0.40;;;;;;;26.75;33.85;96590.38;5058131;28;20111;-34
2021/10/22 01:54:46;;;;;;;1.27;0.40;;;;;;;26.75;33.96;96587.75;5062563;28;20023;-32
2021/10/22 01:57:12;;;;;;;1.52;0.43;;;;;;;26.75;33.78;96590.38;5061043;28;20028;-31
2021/10/22 01:59:37;;;;;;;1.38;0.40;;;;;;;26.75;33.86;96590.38;5063004;28;20028;-28
2021/10/22 02:02:03;;;;;;;0.95;0.40;;;;;;;26.74;33.82;96593.97;5059973;28;20543;-30
2021/10/22 02:04:30;;;;;;;0.47;0.35;;;;;;;26.74;33.87;96600.03;5061110;28;20314;-31
2021/10/22 02:06:55;;;;;;;1.42;0.52;;;;;;;26.74;33.76;96601.84;5059044;28;20016;-30
2021/10/22 02:09:21;;;;;;;0.60;0.40;;;;;;;26.74;33.99;96601.84;5062624;28;20604;-32
2021/10/22 02:11:46;;;;;;;0.65;0.35;;;;;;;26.74;33.80;96600.03;5061209;28;20039;-30
2021/10/22 02:14:14;;;;;;;0.65;0.40;;;;;;;26.74;33.80;96604.47;5061706;28;20065;-31
2021/10/22 02:16:40;;;;;;;1.48;0.30;;;;;;;26.73;33.85;96603.63;5060705;28;20461;-30
2021/10/22 02:19:05;;;;;;;0.30;0.20;;;;;;;26.73;33.93;96600.13;5059053;28;20047;-29
2021/10/22 02:21:31;;;;;;;3.88;0.52;;;;;;;26.74;33.91;96604.47;5063842;28;20032;-30
2021/10/22 02:23:56;;;;;;;0.93;0.60;;;;;;;26.73;33.93;96603.63;5060877;28;20035;-30
2021/10/22 02:26:21;;;;;;;0.73;0.43;;;;;;;26.74;33.92;96604.47;5059544;28;20028;-28
2021/10/22 02:28:47;;;;;;;0.38;0.20;;;;;;;26.73;33.87;96600.13;5060741;28;20945;-33
2021/10/22 02:31:12;;;;;;;0.30;0.20;;;;;;;26.72;33.92;96603.69;5061551;28;20433;-29
2021/10/22 02:33:38;;;;;;;1.13;0.30;;;;;;;26.72;33.89;96606.34;5053568;28;20035;-28
2021/10/22 02:36:04;;;;;;;0.82;0.50;;;;;;;26.72;33.90;96607.19;5051564;28;20042;-31
2021/10/22 02:38:30;;;;;;;1.55;0.57;;;;;;;26.72;33.97;96611.59;5052745;28;20542;-29
2021/10/22 02:40:55;;;;;;;0.43;0.30;;;;;;;26.71;33.83;96607.28;5053601;28;20033;-32
2021/10/22 02:43:21;;;;;;;0.77;0.30;;;;;;;26.72;33.87;96611.59;5055057;28;20028;-29
2021/10/22 02:45:46;;;;;;;0.93;0.35;;;;;;;26.70;33.96;96613.47;5056764;28;20039;-32
2021/10/22 02:48:11;;;;;;;1.10;0.40;;;;;;;26.70;33.90;96613.47;5056399;28;20875;-31
2021/10/22 02:50:37;;;;;;;0.85;0.30;;;;;;;26.67;33.82;96609.25;5055499;28;20086;-29
2021/10/22 02:53:02;;;;;;;0.63;0.30;;;;;;;26.70;33.84;96614.31;5077637;28;20032;-30
2021/10/22 02:55:29;;;;;;;0.30;0.20;;;;;;;26.71;33.94;96620.41;5056525;28;20035;-28
2021/10/22 02:57:55;;;;;;;0.45;0.30;;;;;;;26.70;33.94;96614.31;5057758;28;20020;-30
2021/10/22 03:00:20;;;;;;;0.45;0.43;;;;;;;26.70;33.95;96613.47;5057785;28;20059;-31
2021/10/22 03:02:46;;;;;;;0.30;0.30;;;;;;;26.70;33.84;96618.75;5065042;28;20036;-33
2021/10/22 03:05:11;;;;;;;1.10;0.22;;;;;;;26.70;33.79;96613.47;5056635;28;20510;-29
2021/10/22 03:07:38;;;;;;;0.73;0.40;;;;;;;26.69;33.85;96622.31;5056203;28;20375;-32
2021/10/22 03:10:05;;;;;;;0.32;0.30;;;;;;;26.69;33.85;96630.19;5060647;28;20600;-31
2021/10/22 03:12:30;;;;;;;0.85;0.45;;;;;;;26.69;33.93;96622.31;5058513;28;20024;-28
2021/10/22 03:14:56;;;;;;;0.63;0.30;;;;;;;26.61;33.85;96615.72;5060505;28;20187;-35
2021/10/22 03:17:21;;;;;;;1.23;0.40;;;;;;;26.69;33.90;96627.56;5044998;28;20318;-32
2021/10/22 03:19:46;;;;;;;0.52;0.30;;;;;;;26.68;33.89;96631.09;5053931;28;20833;-32
2021/10/22 03:22:12;;;;;;;0.80;0.35;;;;;;;26.67;33.93;96626.78;5058780;28;20035;-27
2021/10/22 03:24:37;;;;;;;1.30;0.30;;;;;;;26.68;33.83;96631.09;5053137;28;20036;-28
2021/10/22 03:27:04;;;;;;;0.52;0.30;;;;;;;26.68;33.92;96631.09;5060266;28;20380;-37
2021/10/22 03:29:30;;;;;;;0.25;0.20;;;;;;;26.67;33.81;96629.44;5056902;28;20036;-30
2021/10/22 03:31:55;;;;;;;0.70;0.35;;;;;;;26.67;33.79;96635.53;5056225;28;20024;-27
2021/10/22 03:34:21;;;;;;;0.75;0.40;;;;;;;26.67;33.93;96645.19;5059577;28;20947;-33
2021/10/22 03:36:46;;;;;;;1.08;0.40;;;;;;;26.67;33.94;96647.81;5056778;28;20315;-28
2021/10/22 03:39:11;;;;;;;0.82;0.40;;;;;;;26.66;33.96;96646.97;5054884;28;20086;-30
2021/10/22 03:41:37;;;;;;;0.30;0.30;;;;;;;26.66;33.87;96644.34;5052776;28;20035;-27
2021/10/22 03:44:02;;;;;;;0.70;0.30;;;;;;;26.65;33.86;96644.44;5057484;28;20540;-31
2021/10/22 03:46:28;;;;;;;1.40;0.20;;;;;;;26.65;33.77;96644.44;5059957;28;20236;-28
2021/10/22 03:48:54;;;;;;;1.58;0.40;;;;;;;26.64;33.99;96643.59;5056152;28;20584;-33
2021/10/22 03:51:19;;;;;;;1.65;0.30;;;;;;;26.63;33.93;96649.78;5055386;28;20041;-33
2021/10/22 03:53:45;;;;;;;0.85;0.50;;;;;;;26.64;33.50;96655.88;5062783;28;20036;-30
2021/10/22 03:56:10;;;;;;;0.73;0.30;;;;;;;26.62;33.63;96648.13;5081632;28;20036;-29
2021/10/22 03:58:36;;;;;;;1.20;0.35;;;;;;;26.61;33.71;96649.88;5065510;28;20028;-31
2021/10/22 04:01:01;;;;;;;0.45;0.30;;;;;;;26.61;33.68;96647.25;5062788;28;20480;-30
2021/10/22 04:03:26;;;;;;;2.08;0.30;;;;;;;26.61;33.79;96663.03;5064424;28;20032;-29
2021/10/22 04:05:52;;;;;;;0.80;0.38;;;;;;;26.61;33.87;96668.28;5064649;28;20032;-29
2021/10/22 04:08:18;;;;;;;1.67;0.20;;;;;;;26.60;33.77;96656.09;5064708;28;20038;-33
2021/10/22 04:10:43;;;;;;;1.02;0.38;;;;;;;26.60;33.80;96671.84;5063841;28;20043;-31
2021/10/22 04:13:10;;;;;;;0.82;0.30;;;;;;;26.59;33.87;96670.13;5066506;28;20043;-33
2021/10/22 04:15:36;;;;;;;1.00;0.38;;;;;;;26.61;33.74;96675.31;5062389;28;20055;-29
2021/10/22 04:18:02;;;;;;;1.13;0.45;;;;;;;26.59;33.86;96675.38;5063111;28;20724;-31
2021/10/22 04:20:27;;;;;;;0.57;0.35;;;;;;;26.60;33.78;96660.47;5058203;28;20027;-31
2021/10/22 04:22:52;;;;;;;0.60;0.35;;;;;;;26.60;33.87;96671.00;5064563;28;20088;-29
2021/10/22 04:25:18;;;;;;;0.98;0.50;;;;;;;26.60;33.95;96676.25;5066281;28;20119;-29
2021/10/22 04:27:43;;;;;;;1.40;0.20;;;;;;;26.60;34.01;96678.88;5062257;28;20501;-30
2021/10/22 04:30:10;;;;;;;0.45;0.30;;;;;;;26.59;33.88;96685.91;5062415;28;20036;-30
2021/10/22 04:32:35;;;;;;;1.05;0.30;;;;;;;26.59;33.80;96692.97;5062982;28;20036;-32
2021/10/22 04:35:00;;;;;;;0.73;0.30;;;;;;;26.58;33.91;96684.22;5063880;28;20517;-30
2021/10/22 04:37:33;;;;;;;0.20;0.20;;;;;;;26.58;33.88;96683.38;5053250;28;20028;-29
2021/10/22 04:42:45;;;;;;;1.23;0.55;;;;;;;26.57;33.94;96684.31;5060772;28;20039;-32
2021/10/22 04:45:10;;;;;;;0.80;0.30;;;;;;;26.56;33.93;96686.09;5054169;28;20028;-33
2021/10/22 04:47:37;;;;;;;1.13;0.50;;;;;;;26.55;33.91;96684.38;5063664;28;20082;-30
2021/10/22 04:50:03;;;;;;;0.68;0.30;;;;;;;26.56;33.95;96680.84;5055520;28;20035;-31
2021/10/22 04:52:28;;;;;;;1.05;0.40;;;;;;;26.55;33.92;96687.00;5055073;28;20037;-32
2021/10/22 04:54:54;;;;;;;0.55;0.30;;;;;;;26.56;33.95;96682.63;5053839;28;20024;-29
2021/10/22 04:57:19;;;;;;;1.05;0.40;;;;;;;26.55;33.90;96679.13;5056770;28;20564;-31
2021/10/22 04:59:45;;;;;;;0.28;0.28;;;;;;;26.55;33.91;96683.56;5060800;28;20039;-31
2021/10/22 05:02:10;;;;;;;0.30;0.20;;;;;;;26.54;33.82;96680.06;5054815;28;20036;-31
2021/10/22 05:04:35;;;;;;;1.13;0.40;;;;;;;26.54;33.89;96677.44;5055684;28;20335;-27
2021/10/22 05:07:01;;;;;;;0.98;0.43;;;;;;;26.55;33.88;96676.50;5054953;28;20422;-31
2021/10/22 05:09:26;;;;;;;1.30;0.30;;;;;;;26.55;33.94;96681.75;5054624;28;20487;-30
2021/10/22 05:11:52;;;;;;;0.17;0.10;;;;;;;26.55;33.77;96688.81;5056972;28;20213;-30
2021/10/22 05:14:17;;;;;;;0.30;0.25;;;;;;;26.54;33.83;96687.97;5050775;28;20559;-32
2021/10/22 05:16:43;;;;;;;2.05;0.40;;;;;;;26.53;33.84;96686.28;5052930;28;20510;-26
2021/10/22 05:19:08;;;;;;;0.35;0.30;;;;;;;26.53;33.91;96691.53;5053079;28;20028;-30
2021/10/22 05:21:33;;;;;;;2.17;0.50;;;;;;;26.52;33.87;96688.97;5055123;28;20739;-34
2021/10/22 05:23:59;;;;;;;0.88;0.30;;;;;;;26.54;33.93;96687.13;5058795;28;20399;-31
2021/10/22 05:26:24;;;;;;;1.90;0.40;;;;;;;26.52;33.81;96692.47;5055571;28;20032;-30
2021/10/22 05:28:50;;;;;;;0.50;0.30;;;;;;;26.52;33.87;96687.22;5059589;28;20620;-32
2021/10/22 05:31:15;;;;;;;1.08;0.45;;;;;;;26.52;33.87;96689.84;5068362;28;20494;-26
2021/10/22 05:33:40;;;;;;;0.30;0.20;;;;;;;26.52;33.86;96695.09;5053243;28;20031;-33
2021/10/22 05:36:06;;;;;;;0.50;0.20;;;;;;;26.52;33.83;96697.72;5062516;28;20028;-28
2021/10/22 05:38:31;;;;;;;1.75;0.30;;;;;;;26.52;33.84;96694.25;5054420;28;20056;-30
2021/10/22 05:40:57;;;;;;;0.73;0.20;;;;;;;26.51;33.75;96696.03;5053313;28;20027;-30
2021/10/22 05:43:22;;;;;;;0.82;0.40;;;;;;;26.52;33.81;96708.25;5060257;28;20506;-30
2021/10/22 05:45:47;;;;;;;0.52;0.30;;;;;;;26.51;33.84;96697.81;5061306;28;20036;-33
2021/10/22 05:48:13;;;;;;;1.30;0.28;;;;;;;26.50;33.83;96702.22;5058879;28;20463;-28
2021/10/22 05:50:40;;;;;;;0.80;0.30;;;;;;;26.50;33.73;96704.84;5058934;28;20670;-27
2021/10/22 05:53:06;;;;;;;1.65;0.30;;;;;;;26.49;33.84;96705.78;5059217;28;20035;-31
2021/10/22 05:55:31;;;;;;;0.63;0.30;;;;;;;26.49;33.87;96705.78;5056406;28;20032;-31
2021/10/22 05:57:57;;;;;;;0.20;0.20;;;;;;;26.48;33.84;96712.81;5059879;28;20073;-27
2021/10/22 06:00:22;;;;;;;0.55;0.20;;;;;;;26.49;33.92;96708.41;5062196;28;20489;-32
2021/10/22 06:02:50;;;;;;;1.00;0.55;;;;;;;26.48;33.82;96714.59;5060079;28;20047;-29
2021/10/22 06:05:16;;;;;;;1.05;0.50;;;;;;;26.48;33.85;96717.22;5065357;28;20088;-30
2021/10/22 06:07:41;;;;;;;0.88;0.40;;;;;;;26.47;33.69;96723.44;5058767;28;20036;-34
2021/10/22 06:10:07;;;;;;;0.47;0.30;;;;;;;26.48;33.71;96725.13;5062181;28;20027;-29
2021/10/22 06:12:32;;;;;;;0.45;0.25;;;;;;;26.46;33.73;96727.81;5062605;28;20032;-31
2021/10/22 06:14:58;;;;;;;0.77;0.45;;;;;;;26.46;33.68;96726.97;5061619;28;20025;-27
2021/10/22 06:17:23;;;;;;;0.85;0.35;;;;;;;26.46;33.69;96721.72;5061953;28;20036;-32
2021/10/22 06:19:51;;;;;;;2.67;0.35;;;;;;;26.46;33.64;96727.81;5058657;28;20478;-33
2021/10/22 06:22:34;;;;;;;1.05;0.57;;;;;;;26.46;33.64;96724.34;5061337;28;20035;-28
2021/10/22 06:24:59;;;;;;;4.22;0.80;;;;;;;26.46;33.64;96729.59;5060281;28;20036;-30
2021/10/22 06:27:25;;;;;;;6.38;1.48;;;;;;;26.45;33.70;96736.66;5055473;28;20028;-30
2021/10/22 06:29:51;;;;;;;4.63;1.45;;;;;;;26.43;33.66;96737.66;5055048;28;20420;-30
2021/10/22 06:32:16;;;;;;;10.50;1.77;;;;;;;26.43;33.77;96737.66;5052858;28;20443;-28
2021/10/22 06:34:42;;;;;;;10.07;2.65;;;;;;;26.44;33.54;96739.34;5056231;28;20105;-31
2021/10/22 06:37:07;;;;;;;11.90;2.50;;;;;;;26.44;33.57;96744.63;5051348;28;20402;-29
2021/10/22 06:39:32;;;;;;;15.55;2.70;;;;;;;26.43;33.75;96746.38;5055150;28;20029;-28
2021/10/22 06:41:58;;;;;;;9.13;2.30;;;;;;;26.44;33.65;96750.72;5054879;28;20028;-27
2021/10/22 06:44:26;;;;;;;9.45;2.20;;;;;;;26.43;32.77;96756.06;5053580;28;20027;-31
2021/10/22 06:46:51;;;;;;;7.45;2.20;;;;;;;26.41;31.50;96760.53;5055487;28;20040;-31
2021/10/22 06:49:17;;;;;;;9.90;2.50;;;;;;;26.37;30.60;96759.00;5044977;28;20523;-31
2021/10/22 06:51:42;;;;;;;12.43;3.00;;;;;;;26.34;30.32;96767.91;5051541;28;20033;-28
2021/10/22 06:54:08;;;;;;;9.50;2.85;;;;;;;26.29;29.89;96768.19;5052710;28;20024;-30
2021/10/22 06:56:34;;;;;;;9.10;2.58;;;;;;;26.28;29.90;96773.53;5051995;28;20218;-30
2021/10/22 06:58:59;;;;;;;15.32;2.70;;;;;;;26.24;29.85;96775.44;5050748;28;20029;-32
2021/10/22 07:01:25;;;;;;;9.57;3.00;;;;;;;26.21;29.69;96786.13;5056603;28;20017;-29
2021/10/22 07:03:50;;;;;;;10.23;3.13;;;;;;;26.19;29.50;96787.97;5050973;28;20086;-31
2021/10/22 07:08:59;;;;;;;9.15;2.85;;;;;;;26.14;29.60;96787.38;5051631;28;20864;-28
2021/10/22 07:11:25;;;;;;;9.45;2.85;;;;;;;26.13;29.66;96793.56;5050546;28;20025;-31
2021/10/22 07:13:53;;;;;;;8.40;2.70;;;;;;;26.10;29.33;96803.28;5050961;28;20028;-29
2021/10/22 07:16:19;;;;;;;9.57;2.83;;;;;;;26.08;29.27;96802.53;5053197;28;20107;-32
2021/10/22 07:18:45;;;;;;;8.63;3.25;;;;;;;26.06;29.37;96814.91;5068100;28;20089;-28
2021/10/22 07:21:13;;;;;;;6.05;2.95;;;;;;;26.04;29.24;96823.78;5052064;28;20028;-31
2021/10/22 07:23:40;;;;;;;6.50;2.75;;;;;;;26.03;29.29;96824.72;5051560;28;20649;-33
2021/10/22 07:26:06;;;;;;;6.07;2.53;;;;;;;26.01;29.38;96827.44;5049945;28;20031;-31
2021/10/22 07:28:31;;;;;;;7.28;2.55;;;;;;;25.99;29.28;96829.31;5052783;28;20028;-32
2021/10/22 07:30:57;;;;;;;7.28;2.53;;;;;;;26.00;29.29;96836.25;5057222;28;21238;-32
2021/10/22 07:33:22;;;;;;;6.55;2.80;;;;;;;25.98;29.36;96838.13;5052348;28;20032;-27
2021/10/22 07:35:48;;;;;;;9.93;2.65;;;;;;;25.99;29.41;96845.06;5055680;28;20593;-31
2021/10/22 07:38:13;;;;;;;7.50;2.50;;;;;;;25.97;29.57;96841.66;5055351;28;20277;-29
2021/10/22 07:40:40;;;;;;;6.53;2.40;;;;;;;25.97;29.43;96852.16;5056565;28;20028;-31
2021/10/22 07:43:05;;;;;;;6.75;2.50;;;;;;;25.97;29.45;96857.41;5051444;28;20059;-29
2021/10/22 07:45:31;;;;;;;7.13;2.63;;;;;;;25.95;29.28;96854.88;5056062;28;23047;-31
2021/10/22 07:47:56;;;;;;;8.23;2.65;;;;;;;25.95;29.18;96870.63;5054977;28;20036;-32
2021/10/22 07:50:22;;;;;;;7.32;2.40;;;;;;;25.97;29.34;96865.28;5052660;28;20021;-32
2021/10/22 07:52:47;;;;;;;9.23;2.70;;;;;;;25.96;29.21;96874.09;5058850;28;20498;-30
2021/10/22 07:55:13;;;;;;;6.80;2.40;;;;;;;25.95;29.28;96873.25;5065078;28;20031;-30
2021/10/22 07:57:38;;;;;;;5.57;2.22;;;;;;;25.96;28.94;96874.94;5064856;28;20028;-30
2021/10/22 08:00:05;;;;;;;7.70;2.50;;;;;;;25.95;28.94;96889.00;5065411;28;20078;-32
2021/10/22 08:02:30;;;;;;;8.38;2.58;;;;;;;25.94;29.17;96884.66;5064831;28;20028;-31
2021/10/22 08:04:56;;;;;;;23.15;3.03;;;;;;;25.93;29.01;96897.91;5064112;28;20035;-30
2021/10/22 08:07:27;;;;;;;9.18;2.13;;;;;;;25.89;28.66;96896.38;5063040;28;20028;-30
2021/10/22 08:09:52;;;;;;;6.38;2.40;;;;;;;25.87;28.49;96904.31;5062313;28;20553;-29
2021/10/22 08:12:19;;;;;;;9.65;2.63;;;;;;;25.84;28.70;96907.09;5059145;28;20039;-27
2021/10/22 08:14:46;;;;;;;6.60;2.60;;;;;;;25.79;27.94;96901.22;5064545;28;20431;-28
2021/10/22 08:17:14;;;;;;;7.75;2.80;;;;;;;25.72;26.26;96905.09;5060350;28;20122;-30
2021/10/22 08:19:40;;;;;;;9.65;2.85;;;;;;;25.59;26.04;96905.69;5079541;28;20028;-32
2021/10/22 08:24:32;;;;;;;8.98;3.10;;;;;;;25.30;25.32;96911.47;5061985;28;20793;-28
2021/10/22 08:26:59;;;;;;;12.55;3.10;;;;;;;25.18;25.18;96907.66;5052493;28;20024;-28
2021/10/22 08:29:25;;;;;;;9.80;2.70;;;;;;;25.08;25.43;96908.19;5054947;28;20050;-29
2021/10/22 08:31:51;;;;;;;18.80;3.00;;;;;;;25.01;25.85;96905.88;5056988;28;20924;-31
2021/10/22 08:34:16;;;;;;;10.02;2.80;;;;;;;24.99;26.70;96912.09;5059804;28;20024;-32
2021/10/22 08:36:42;;;;;;;9.30;2.72;;;;;;;24.98;27.20;96916.47;5055589;28;20032;-29
2021/10/22 08:39:07;;;;;;;7.88;2.88;;;;;;;25.01;27.82;96920.72;5056017;28;20566;-28
2021/10/22 08:41:34;;;;;;;10.60;3.33;;;;;;;25.04;28.03;96913.59;5054597;28;20031;-29
2021/10/22 08:44:00;;;;;;;10.32;2.78;;;;;;;25.09;28.45;96925.63;5058357;28;20032;-30
2021/10/22 08:46:25;;;;;;;9.60;2.30;;;;;;;25.14;28.82;96926.25;5039329;28;20054;-33
2021/10/22 08:48:51;;;;;;;10.40;2.92;;;;;;;25.18;29.22;96923.38;5037121;28;20020;-32
2021/10/22 08:51:18;;;;;;;6.80;2.47;;;;;;;25.22;29.15;96920.63;5061783;28;20720;-35
2021/10/22 08:53:48;;;;;;;9.55;2.67;;;;;;;25.28;29.52;96923.78;5062583;28;20031;-31
2021/10/22 08:56:14;;;;;;;5.95;2.05;;;;;;;25.35;29.64;96921.72;5070031;28;20032;-29
2021/10/22 08:58:40;;;;;;;7.85;2.47;;;;;;;25.44;29.79;96928.31;5058904;28;20035;-29
2021/10/22 09:01:05;;;;;;;9.95;2.20;;;;;;;25.53;30.02;96922.59;5056756;28;20036;-28
2021/10/22 09:03:37;;;;;;;6.10;2.45;;;;;;;25.62;29.79;96921.31;5058764;28;20036;-33
2021/10/22 09:06:05;;;;;;;7.13;2.45;;;;;;;25.76;29.66;96933.75;5077387;27;20070;-27
2021/10/22 09:08:35;;;;;;;5.85;2.05;;;;;;;25.87;29.45;96929.72;5059732;28;20028;-29
2021/10/22 09:11:02;;;;;;;6.47;2.05;;;;;;;25.96;29.76;96937.09;5050311;28;20711;-32
2021/10/22 09:13:29;;;;;;;9.13;2.38;;;;;;;26.05;29.72;96931.38;5034549;28;21388;-27
2021/10/22 09:15:56;;;;;;;14.35;2.53;;;;;;;26.13;29.75;96930.13;5053669;28;20262;-27
2021/10/22 09:18:29;;;;;;;9.27;3.13;;;;;;;26.21;29.60;96933.22;5055270;28;20134;-30
2021/10/22 09:20:59;;;;;;;9.93;2.70;;;;;;;26.27;29.78;96919.78;5054706;28;20506;-31
2021/10/22 09:23:25;;;;;;;10.80;2.63;;;;;;;26.33;29.70;96924.72;5054333;28;20043;-30
2021/10/22 09:25:51;;;;;;;7.25;2.70;;;;;;;26.38;29.77;96918.38;5058905;28;20114;-32
2021/10/22 09:28:16;;;;;;;10.68;2.85;;;;;;;26.44;29.75;96918.03;5059046;28;20667;-29
2021/10/22 09:30:45;;;;;;;10.70;3.00;;;;;;;26.45;29.80;96924.97;5071781;28;20036;-30
2021/10/22 09:33:10;;;;;;;7.07;2.83;;;;;;;26.47;29.81;96923.97;5061590;28;20036;-29
2021/10/22 09:35:43;;;;;;;8.65;2.40;;;;;;;26.50;29.96;96922.94;5061831;28;20028;-33
2021/10/22 09:38:17;;;;;;;36.22;3.00;;;;;;;26.50;29.94;96924.75;5061863;28;20730;-32
2021/10/22 09:40:46;;;;;;;9.52;2.67;;;;;;;26.52;30.13;96930.75;5061079;28;20017;-31
2021/10/22 09:43:36;;;;;;;6.00;2.17;;;;;;;26.51;30.12;96929.91;5040265;28;20024;-30
2021/10/22 09:46:11;;;;;;;8.20;2.50;;;;;;;26.52;30.11;96928.97;5069942;28;20293;-30
2021/10/22 09:48:36;;;;;;;13.68;2.38;;;;;;;26.53;30.14;96929.81;5063123;28;20091;-27
2021/10/22 09:51:24;;;;;;;5.60;2.42;;;;;;;26.53;30.24;96930.66;5046198;28;20549;-31
2021/10/22 09:53:50;;;;;;;8.75;2.13;;;;;;;26.53;30.33;96928.03;5068853;28;20082;-32
2021/10/22 09:56:23;;;;;;;11.77;2.60;;;;;;;26.53;30.57;96930.66;5061737;28;20837;-33
2021/10/22 09:59:00;;;;;;;6.25;2.20;;;;;;;26.52;30.58;96926.34;5058639;28;20981;-28
2021/10/22 10:01:39;;;;;;;5.53;1.98;;;;;;;26.53;30.52;96928.03;5059730;28;20028;-31
2021/10/22 10:04:06;;;;;;;8.50;2.30;;;;;;;26.53;30.70;96925.41;5061463;28;20441;-31
2021/10/22 10:06:31;;;;;;;8.07;2.50;;;;;;;26.53;30.93;96917.53;5058758;28;20093;-32
2021/10/22 10:08:57;;;;;;;8.88;2.30;;;;;;;26.53;31.04;96917.53;5046726;28;20024;-33
2021/10/22 10:11:26;;;;;;;6.35;2.30;;;;;;;26.50;31.28;96915.06;5056099;28;20111;-35
2021/10/22 10:13:52;;;;;;;8.65;2.45;;;;;;;26.55;31.47;96926.16;5057540;28;20548;-29
2021/10/22 10:16:18;;;;;;;8.77;3.00;;;;;;;26.55;31.36;96920.09;5057582;28;20118;-32
2021/10/22 10:19:06;;;;;;;10.05;3.20;;;;;;;26.52;31.67;96923.72;5061686;28;20024;-29
2021/10/22 10:21:39;;;;;;;21.25;3.45;;;;;;;26.55;31.45;96920.91;5056752;28;20545;-29
2021/10/22 10:24:05;;;;;;;16.75;4.15;;;;;;;26.54;31.71;96907.88;5045298;28;20034;-29
2021/10/22 10:26:32;;;;;;;23.08;4.78;;;;;;;26.57;31.70;96919.06;5053970;28;20030;-35
2021/10/22 10:29:00;;;;;;;14.95;4.78;;;;;;;26.58;31.77;96915.50;5056782;28;20411;-29
2021/10/22 10:31:30;;;;;;;19.83;4.90;;;;;;;26.58;31.84;96920.75;5054568;28;20114;-29
2021/10/22 10:33:57;;;;;;;14.13;4.35;;;;;;;26.60;31.85;96923.31;5054201;28;20047;-28
2021/10/22 10:36:44;;;;;;;15.55;4.28;;;;;;;26.59;31.98;96925.06;5063094;28;20332;-33
2021/10/22 10:39:10;;;;;;;15.88;4.35;;;;;;;26.59;32.00;96919.81;5054825;28;20058;-33
2021/10/22 10:41:35;;;;;;;21.55;4.70;;;;;;;26.59;32.03;96919.81;5052931;28;20025;-29
2021/10/22 10:44:24;;;;;;;18.88;4.57;;;;;;;26.58;32.05;96919.94;5051222;28;20023;-30
2021/10/22 10:46:50;;;;;;;14.45;3.40;;;;;;;26.58;31.52;96920.75;5047788;28;20040;-30
2021/10/22 10:49:46;;;;;;;13.15;2.78;;;;;;;26.56;29.41;96922.63;5053147;28;21327;-30
2021/10/22 10:52:37;;;;;;;17.08;2.78;;;;;;;26.52;27.48;96930.75;5056141;28;20031;-32
2021/10/22 10:55:36;;;;;;;8.45;2.63;;;;;;;26.47;25.87;96929.22;5054118;28;20035;-30
2021/10/22 10:58:08;;;;;;;10.13;2.40;;;;;;;26.41;25.04;96918.19;5050771;28;20035;-32
2021/10/22 11:00:46;;;;;;;9.88;2.35;;;;;;;26.34;24.14;96928.19;5053930;28;20043;-28
2021/10/22 11:03:15;;;;;;;6.75;2.33;;;;;;;26.28;23.71;96928.53;5057257;28;20390;-30
2021/10/22 11:05:44;;;;;;;6.30;1.70;;;;;;;26.23;23.13;96923.47;5053452;28;21171;-31
2021/10/22 11:08:23;;;;;;;6.45;2.08;;;;;;;26.16;22.69;96924.72;5054027;28;20024;-28
2021/10/22 11:11:01;;;;;;;6.75;2.13;;;;;;;26.10;21.93;96931.97;5055731;28;20494;-33
2021/10/22 11:13:45;;;;;;;9.40;2.42;;;;;;;26.04;22.22;96929.69;5055054;28;20886;-33
2021/10/22 11:16:23;;;;;;;6.03;2.30;;;;;;;25.98;22.39;96932.66;5054976;28;20039;-31
2021/10/22 11:19:04;;;;;;;10.18;2.35;;;;;;;25.92;22.56;96928.56;5057342;28;20032;-32
2021/10/22 11:21:31;;;;;;;5.78;2.22;;;;;;;25.86;22.75;96920.13;5054075;28;20037;-32
2021/10/22 11:23:57;;;;;;;5.40;1.90;;;;;;;25.86;22.66;96925.38;5057169;28;20787;-34
2021/10/22 11:26:22;;;;;;;16.88;2.92;;;;;;;25.82;23.01;96943.91;5058337;28;20127;-31
2021/10/22 11:28:56;;;;;;;6.25;2.05;;;;;;;25.80;22.66;96940.53;5056424;28;20498;-31
2021/10/22 11:31:47;;;;;;;6.00;1.92;;;;;;;25.79;22.58;96938.84;5055390;28;20031;-32
2021/10/22 11:34:13;;;;;;;8.65;2.15;;;;;;;25.75;22.76;96921.53;5065544;28;20032;-32
2021/10/22 11:36:40;;;;;;;6.78;1.85;;;;;;;25.78;22.41;96938.91;5052447;28;20089;-36
2021/10/22 11:39:26;;;;;;;7.07;2.30;;;;;;;25.77;23.25;96935.44;5055603;28;20031;-30
2021/10/22 11:42:13;;;;;;;5.18;1.88;;;;;;;25.79;24.72;96938.84;5062445;28;20020;-29
2021/10/22 11:44:50;;;;;;;8.70;2.42;;;;;;;25.82;25.73;96937.84;5056545;28;20031;-33